Date,TemperatureHighF,TemperatureAvgF,TemperatureLowF,DewpointHighF,DewpointAvgF,DewpointLowF,HumidityHigh,HumidityAvg,HumidityLow,PressureMaxIn,PressureMinIn,WindSpeedMaxMPH,WindSpeedAvgMPH,GustSpeedMaxMPH,PrecipitationSumIn
2013-1-29,50.2,47.8,45.0,46.0,44.7,43.0,94,89,85,30.08,30.03,5,2,8,0.00
2013-1-30,68.0,55.7,42.8,61.0,52.4,42.0,97,90,76,30.03,29.33,24,5,27,0.12
2013-1-31,63.5,45.8,30.8,60.0,33.6,14.0,93,64,41,29.83,29.07,27,12,39,0.76
2013-2-1,31.2,29.1,23.8,22.0,13.0,8.0,82,51,38,30.27,29.83,20,7,28,0.00
2013-2-2,30.7,25.1,19.1,24.0,12.8,8.0,90,60,42,30.31,30.03,14,6,18,0.00
2013-2-3,29.3,26.3,25.0,24.0,23.3,22.0,91,88,78,30.02,29.87,5,2,8,0.01
2013-2-8,36.1,36.1,36.1,34.0,34.0,34.0,92,92,92,29.97,29.97,9,9,21,0.00
2013-2-11,38.9,38.9,38.9,38.0,38.0,38.0,95,95,95,29.84,29.84,0,0,1,0.00
2013-2-12,46.7,42.0,34.2,31.0,27.9,26.0,73,58,50,29.97,29.84,17,7,24,0.00
2013-2-13,44.0,36.1,28.2,33.0,28.8,24.0,94,76,57,29.96,29.66,8,3,10,0.07
2013-2-14,47.0,39.4,32.5,34.0,32.6,31.0,94,78,58,30.00,29.71,7,2,12,0.03
2013-2-15,56.3,43.9,31.4,40.0,34.1,29.0,93,71,47,30.01,29.89,12,4,17,0.00
2013-2-16,39.1,36.1,31.8,35.0,28.3,17.0,92,74,54,29.97,29.75,15,6,23,0.04
2013-2-17,31.5,28.6,22.6,16.0,10.4,4.0,57,46,39,30.06,29.72,22,12,36,0.00
2013-2-18,37.3,28.7,20.9,18.0,11.4,5.0,55,48,39,30.29,30.07,15,7,29,0.00
2013-2-19,47.0,38.7,27.1,44.0,31.5,17.0,92,76,52,30.19,29.68,18,5,25,0.18
2013-2-20,38.3,31.3,26.5,28.0,17.2,13.0,68,56,47,30.04,29.77,21,9,28,0.00
2013-2-21,36.1,30.2,25.6,19.0,16.6,13.0,66,57,48,30.29,30.02,18,9,27,0.00
2013-2-22,37.2,28.0,24.4,26.0,19.6,16.0,75,70,63,30.40,30.28,10,5,12,0.00
2013-2-23,47.2,43.7,38.7,46.0,42.2,37.0,96,94,92,30.02,29.78,13,6,16,0.09
2013-2-24,47.0,40.0,33.8,40.0,32.6,23.0,95,76,55,30.00,29.75,18,7,27,0.00
2013-2-25,45.0,37.5,31.6,31.0,27.0,23.0,83,66,53,30.22,30.01,13,5,16,0.00
2013-2-26,45.6,37.1,28.3,37.0,31.3,25.0,92,80,63,30.24,29.79,23,7,29,0.26
2013-2-27,52.3,46.5,39.7,48.0,41.8,38.0,95,84,70,29.77,29.48,22,7,26,0.17
2013-2-28,46.9,43.9,38.1,38.0,34.0,28.0,79,68,50,29.64,29.56,11,4,19,0.00
2013-3-1,45.1,40.3,35.0,33.0,30.4,28.0,85,68,53,29.80,29.62,15,8,23,0.00
2013-3-2,41.3,36.5,32.6,28.0,25.4,22.0,70,64,56,29.80,29.71,14,8,21,0.00
2013-3-3,37.7,33.3,28.8,23.0,21.3,19.0,68,61,53,29.79,29.70,19,8,24,0.00
2013-3-4,41.4,35.2,30.6,24.0,21.6,18.0,67,58,48,29.94,29.79,20,9,25,0.00
2013-3-5,47.8,39.0,32.6,31.0,27.3,24.0,78,63,48,30.02,29.93,13,4,17,0.00
2013-3-6,41.8,39.3,34.8,37.0,34.1,29.0,86,82,77,29.93,29.75,35,14,42,0.02
2013-3-8,44.2,39.4,32.3,36.0,32.3,28.0,94,76,62,30.20,30.04,14,8,23,0.08
2013-3-9,58.8,44.8,34.6,30.0,25.3,18.0,68,49,24,30.30,30.18,12,5,15,0.00
2013-3-10,56.4,42.7,31.8,39.0,32.6,22.0,88,69,46,30.36,30.24,9,3,14,0.00
2013-3-11,60.2,46.7,36.7,49.0,41.6,34.0,95,84,53,30.29,30.05,11,4,16,0.00
2013-3-12,59.3,53.3,43.8,57.0,49.3,37.0,94,87,75,30.04,29.66,14,8,23,0.75
2013-3-13,49.8,43.2,37.2,37.0,30.9,25.0,77,62,44,29.93,29.82,15,6,23,0.00
2013-3-14,42.0,36.5,31.0,25.0,19.0,14.0,76,50,33,29.99,29.89,23,10,30,0.00
2013-3-15,51.2,40.8,28.8,34.0,23.1,14.0,64,49,40,30.01,29.72,15,6,22,0.00
2013-3-16,47.8,38.1,33.5,34.0,30.6,25.0,93,76,56,29.91,29.75,9,4,12,0.07
2013-3-17,39.3,34.9,31.1,33.0,25.2,21.0,91,69,51,30.29,29.91,15,5,17,0.03
2013-3-18,40.7,34.6,30.9,36.0,25.6,16.0,94,71,52,30.36,29.90,19,7,24,0.39
2013-3-19,51.3,42.4,37.3,39.0,34.0,21.0,94,75,38,29.90,29.69,21,8,29,0.20
2013-3-20,38.6,35.6,34.0,23.0,21.5,20.0,61,56,51,29.91,29.85,11,5,16,0.00
2013-3-22,41.6,38.3,34.1,24.0,22.3,20.0,65,52,46,29.91,29.80,17,9,23,0.00
2013-3-23,47.4,39.7,32.7,25.0,22.4,21.0,63,51,37,29.94,29.84,17,8,22,0.00
2013-3-24,46.5,39.5,31.2,28.0,23.7,21.0,70,54,39,29.96,29.67,13,4,16,0.00
2013-3-25,39.2,36.7,33.8,35.0,32.5,28.0,93,85,66,29.68,29.45,17,6,25,0.42
2013-3-26,51.9,43.3,36.6,36.0,33.3,29.0,91,70,42,29.89,29.61,14,6,19,0.01
2013-3-27,51.3,44.2,36.8,34.0,31.3,27.0,82,62,40,30.00,29.89,20,7,27,0.00
2013-3-28,48.7,43.5,36.7,33.0,30.8,29.0,75,62,48,30.12,29.98,17,6,19,0.00
2013-3-29,53.4,47.0,39.1,33.0,30.7,29.0,68,54,43,30.16,30.07,14,6,19,0.00
2013-3-30,57.7,47.8,35.3,34.0,29.6,24.0,81,52,28,30.18,30.07,12,3,17,0.00
2013-3-31,57.2,47.5,35.8,48.0,38.4,31.0,95,73,42,30.12,29.69,15,5,22,0.19
2013-4-1,62.5,50.8,40.0,48.0,38.0,18.0,94,65,36,29.92,29.64,22,6,29,0.00
2013-4-2,44.7,39.4,33.0,19.0,17.0,14.0,52,40,30,30.10,29.93,19,7,25,0.00
2013-4-3,46.8,39.5,32.1,21.0,16.9,13.0,55,41,27,30.30,30.10,20,6,25,0.00
2013-4-4,52.1,41.3,31.1,28.0,21.2,14.0,56,45,33,30.40,30.08,14,4,16,0.00
2013-4-5,63.1,49.8,39.3,37.0,29.6,21.0,90,52,23,30.08,29.72,19,6,21,0.01
2013-4-6,52.2,43.9,36.3,31.0,22.5,18.0,69,44,28,30.29,30.00,14,6,17,0.00
2013-4-7,63.2,52.1,37.4,46.0,38.5,31.0,82,61,40,30.30,29.98,17,7,23,0.00
2013-4-8,76.3,63.6,49.6,52.0,47.8,44.0,83,59,37,30.06,29.95,13,3,16,0.00
2013-4-9,82.8,71.8,60.5,55.0,52.1,46.0,77,53,28,29.98,29.88,16,5,25,0.00
2013-4-10,87.2,71.5,60.8,61.0,56.3,52.0,92,61,37,29.91,29.77,19,4,26,0.47
2013-4-11,65.4,59.5,49.3,61.0,55.1,45.0,94,86,75,29.95,29.76,16,6,21,0.00
2013-4-12,49.2,46.6,44.8,45.0,43.8,43.0,93,90,84,29.94,29.80,17,11,25,0.11
2013-4-14,61.3,56.9,51.7,40.0,35.0,31.0,64,44,36,30.16,30.05,15,5,21,0.00
2013-4-15,59.4,52.2,46.5,44.0,38.6,34.0,74,60,52,30.34,30.16,12,6,14,0.00
2013-4-16,72.5,60.7,47.7,58.0,51.2,42.0,87,72,58,30.34,30.10,17,6,24,0.00
2013-4-17,71.8,62.7,55.7,58.0,48.3,34.0,91,63,26,30.26,30.08,12,4,16,0.01
2013-4-18,62.5,56.9,51.8,57.0,50.5,43.0,93,79,63,30.29,30.06,14,5,15,0.01
2013-4-19,78.0,67.7,57.2,66.0,61.6,53.0,93,82,64,30.05,29.61,19,8,33,0.23
2013-4-20,57.6,52.6,48.0,54.0,36.4,27.0,89,57,34,30.30,29.70,20,7,25,0.13
2013-4-21,54.4,45.4,36.9,33.0,27.3,23.0,69,50,36,30.60,30.30,11,4,19,0.00
2013-4-22,49.9,45.0,37.0,40.0,35.4,31.0,81,69,56,30.60,30.44,18,8,26,0.00
2013-4-23,49.8,46.1,42.9,44.0,39.4,35.0,83,78,71,30.44,30.12,16,7,19,0.00
2013-4-24,71.7,56.7,39.5,56.0,48.3,37.0,91,75,57,30.11,29.79,17,5,25,0.00
2013-4-25,63.5,55.2,46.2,56.0,34.4,27.0,81,47,26,30.25,29.87,22,6,28,0.00
2013-4-26,63.7,55.4,45.6,40.0,34.4,29.0,69,47,28,30.40,30.25,10,3,15,0.00
2013-4-27,69.1,57.8,46.8,41.0,34.7,31.0,60,43,27,30.42,30.26,9,3,17,0.00
2013-4-28,70.4,57.9,43.1,47.0,39.7,30.0,85,54,32,30.30,30.17,13,4,19,0.00
2013-4-29,57.0,54.8,52.9,55.0,51.5,43.0,94,89,63,30.21,30.12,10,4,15,0.25
2013-4-30,66.1,57.7,50.0,53.0,44.7,34.0,94,65,35,30.30,30.16,13,6,21,0.00
2013-5-1,65.0,55.8,45.7,46.0,39.9,34.0,81,57,33,30.45,30.30,15,5,21,0.00
2013-5-2,70.5,57.9,43.7,49.0,43.6,39.0,91,62,33,30.44,30.31,10,3,16,0.00
2013-5-3,62.0,54.8,47.4,45.0,42.5,37.0,84,64,41,30.41,30.33,16,6,20,0.00
2013-5-4,66.2,55.0,44.7,48.0,43.6,40.0,90,68,39,30.36,30.20,15,5,17,0.00
2013-5-5,61.7,51.9,43.4,46.0,42.6,40.0,89,71,52,30.26,30.18,14,5,17,0.00
2013-5-6,67.4,55.7,46.0,56.0,49.7,42.0,90,81,65,30.23,30.11,12,6,16,0.00
2013-5-7,68.4,60.0,52.7,62.0,56.1,51.0,95,87,74,30.14,30.03,14,6,16,0.04
2013-5-8,71.8,63.1,59.0,63.0,59.0,54.0,94,87,62,30.04,29.90,11,4,19,0.52
2013-5-9,58.6,57.0,56.3,55.0,54.6,54.0,95,92,85,29.97,29.90,3,1,9,0.40
2013-5-10,81.8,75.6,64.9,62.0,58.8,54.0,91,57,40,29.98,29.87,10,5,16,0.11
2013-5-11,75.3,67.4,63.1,66.0,62.9,60.0,94,86,69,29.91,29.68,15,4,20,0.36
2013-5-12,64.2,60.1,50.2,60.0,43.2,28.0,90,57,31,29.96,29.68,17,6,26,0.03
2013-5-13,55.1,49.9,42.7,37.0,32.4,24.0,79,53,32,30.11,29.96,15,5,22,0.00
2013-5-14,60.9,50.9,39.5,40.0,32.9,28.0,81,53,29,30.14,30.03,11,4,19,0.00
2013-5-15,73.4,61.5,51.4,60.0,50.6,38.0,84,68,57,30.06,29.68,17,4,18,0.00
2013-5-16,81.4,70.0,58.3,64.0,60.1,55.0,93,73,50,29.83,29.70,9,2,14,0.01
2013-5-17,74.1,66.0,55.4,55.0,46.8,43.0,74,51,33,30.17,29.84,10,3,14,0.00
2013-5-18,67.0,60.1,56.2,56.0,52.8,47.0,92,77,61,30.27,30.17,11,3,18,0.12
2013-5-19,61.8,59.5,56.7,60.0,57.8,55.0,96,94,93,30.26,30.14,7,3,11,0.15
2013-5-20,79.4,68.1,58.9,68.0,63.6,58.0,97,87,66,30.15,29.96,7,2,11,0.01
2013-5-21,81.8,74.3,64.1,71.0,67.8,62.0,95,81,64,29.96,29.83,13,5,18,0.00
2013-5-22,86.6,76.8,69.8,73.0,69.6,67.0,92,80,57,29.90,29.80,14,6,20,0.00
2013-5-23,76.6,73.3,71.6,70.0,68.5,68.0,89,85,75,29.87,29.83,14,7,21,0.02
2013-5-24,52.3,50.2,46.7,49.0,44.0,41.0,90,80,69,30.00,29.84,18,9,26,0.28
2013-5-25,61.1,54.2,47.4,42.0,39.1,35.0,80,59,39,30.04,29.95,20,10,29,0.00
2013-5-26,69.8,59.3,50.0,44.0,38.3,36.0,62,47,29,30.20,30.02,17,6,26,0.00
2013-5-27,72.4,61.3,44.4,48.0,41.8,38.0,86,52,31,30.25,30.13,10,2,16,0.00
2013-5-28,65.5,60.5,53.1,63.0,56.2,47.0,95,86,62,30.20,30.09,9,2,11,0.25
2013-5-29,88.9,74.6,60.2,70.0,64.7,59.0,97,75,46,30.10,30.01,15,4,17,0.00
2013-5-30,91.3,82.2,70.6,70.0,66.4,62.0,88,61,39,30.13,30.05,8,2,13,0.00
2013-5-31,91.7,82.4,69.7,72.0,66.2,60.0,89,61,36,30.11,29.99,13,4,20,0.00
2013-6-1,90.1,81.4,71.0,71.0,67.8,64.0,85,65,43,30.01,29.89,17,6,21,0.00
2013-6-2,86.8,80.4,73.7,70.0,68.7,65.0,82,68,55,29.91,29.78,17,7,22,0.00
2013-6-3,75.9,72.0,68.3,70.0,68.1,64.0,94,88,76,29.86,29.78,8,2,13,1.19
2013-6-4,75.6,66.8,58.3,63.0,49.2,44.0,84,55,32,30.09,29.87,14,4,15,0.01
2013-6-5,76.6,66.2,53.4,56.0,48.9,44.0,82,55,37,30.18,30.07,10,3,15,0.00
2013-6-6,73.0,64.7,56.5,62.0,57.5,52.0,95,79,51,30.12,29.96,14,5,22,0.07
2013-6-7,66.3,64.0,61.3,65.0,62.4,59.0,96,94,88,29.95,29.57,16,6,19,2.72
2013-6-8,77.4,69.4,60.7,66.0,62.4,58.0,95,79,62,30.05,29.56,13,4,17,0.16
2013-6-9,82.0,73.7,62.8,66.0,61.0,57.0,85,66,48,30.17,30.06,8,3,13,0.00
2013-6-10,73.7,70.1,66.0,71.0,67.1,63.0,95,91,76,30.13,29.77,10,4,15,1.61
2013-6-11,81.2,74.5,68.8,70.0,66.2,62.0,94,77,60,29.77,29.66,14,5,24,0.08
2013-6-12,81.3,74.7,68.1,64.0,59.9,57.0,78,61,44,29.82,29.75,13,5,19,0.00
2013-6-13,77.5,69.1,60.4,72.0,63.2,57.0,93,82,72,29.83,29.38,11,4,17,0.37
2013-6-14,75.4,62.6,55.6,60.0,55.8,52.0,92,79,53,29.90,29.50,19,6,21,0.30
2013-6-15,80.5,71.0,59.4,61.0,57.2,54.0,91,64,40,30.01,29.91,11,3,16,0.01
2013-6-16,81.9,71.8,60.5,67.0,61.6,56.0,89,72,50,29.99,29.80,14,4,25,0.00
2013-6-17,86.2,76.3,66.5,69.0,66.2,64.0,93,72,50,29.91,29.82,8,2,15,0.00
2013-6-18,76.4,69.5,64.8,70.0,65.6,63.0,94,88,76,29.89,29.80,9,2,14,0.30
2013-6-19,76.8,68.3,61.6,63.0,56.5,50.0,94,69,40,30.15,29.85,11,4,16,0.01
2013-6-20,79.4,69.8,56.3,60.0,56.2,53.0,91,64,45,30.26,30.15,11,3,16,0.00
2013-6-21,77.3,66.0,58.4,56.0,53.6,51.0,87,66,43,30.29,30.24,5,1,9,0.00
2013-6-23,84.7,79.3,72.0,73.0,70.6,65.0,90,75,61,30.18,30.04,14,5,18,0.00
2013-6-24,90.8,79.5,71.3,74.0,70.1,65.0,90,74,52,30.07,29.98,10,3,12,0.01
2013-6-25,91.0,78.5,68.8,75.0,69.4,66.0,92,75,49,30.00,29.83,12,3,16,0.17
2013-6-26,88.9,78.6,71.4,73.0,68.4,65.0,91,72,53,29.86,29.76,10,3,15,0.08
2013-6-27,75.6,73.3,72.6,72.0,71.0,70.0,94,92,89,29.80,29.75,2,0,4,0.00
2013-6-28,84.9,77.7,70.6,71.0,69.0,66.0,91,76,60,29.54,29.47,10,4,17,0.06
2013-6-29,87.0,77.4,68.3,70.0,67.2,64.0,94,73,47,29.68,29.48,13,3,18,0.00
2013-6-30,81.6,75.6,72.3,75.0,72.0,69.0,95,89,80,29.88,29.69,13,2,18,0.75
2013-7-1,78.0,75.5,72.3,74.0,72.6,70.0,93,91,86,30.01,29.86,10,4,16,0.23
2013-7-2,85.0,77.5,74.1,76.0,72.8,71.0,92,86,67,30.17,30.01,16,6,21,0.20
2013-7-3,84.7,78.4,72.3,76.0,73.5,70.0,93,85,74,30.23,30.15,8,3,12,0.55
2013-7-4,88.1,81.4,75.5,75.0,73.6,72.0,94,78,61,30.24,30.15,14,6,20,0.01
2013-7-5,90.2,83.3,74.4,76.0,73.2,71.0,92,73,53,30.21,30.09,16,6,20,0.00
2013-7-6,93.1,84.6,76.8,75.0,73.7,72.0,89,71,50,30.14,30.02,12,4,15,0.00
2013-7-7,92.3,83.7,75.3,76.0,73.0,69.0,89,71,55,30.06,29.93,16,3,29,0.00
2013-7-8,85.4,77.3,71.7,73.0,68.9,64.0,88,76,56,30.05,29.97,9,3,12,0.00
2013-7-9,87.1,79.1,71.1,75.0,71.1,67.0,91,77,60,30.06,29.97,11,2,16,0.10
2013-7-10,87.6,81.2,75.3,75.0,73.6,72.0,92,78,62,30.00,29.80,19,5,19,0.10
2013-7-11,84.6,79.8,76.3,75.0,71.0,66.0,87,75,60,29.90,29.80,9,4,15,0.00
2013-7-12,76.7,73.1,69.8,69.0,66.8,64.0,94,81,68,30.03,29.89,16,7,26,0.62
2013-7-13,86.0,76.6,69.9,78.0,72.7,68.0,95,88,71,30.27,30.03,9,3,14,0.63
2013-7-14,89.9,81.6,74.4,76.0,73.7,71.0,95,78,58,30.33,30.23,9,2,13,0.00
2013-7-15,92.8,84.6,75.7,76.0,73.7,71.0,87,71,55,30.25,30.12,10,2,12,0.00
2013-7-16,91.6,84.7,77.4,75.0,71.3,68.0,83,66,48,30.19,30.11,11,4,17,0.00
2013-7-17,93.8,84.6,75.7,75.0,71.8,67.0,85,67,43,30.17,30.05,8,2,10,0.00
2013-7-18,96.1,87.5,79.4,78.0,74.9,72.0,83,67,49,30.07,29.94,8,2,12,0.00
2013-7-19,95.9,88.7,82.3,80.0,77.6,75.0,87,71,54,29.97,29.79,17,5,19,0.00
2013-7-20,92.0,85.2,79.2,76.0,72.6,70.0,77,66,56,29.83,29.73,16,4,23,0.00
2013-7-21,85.7,77.8,73.0,76.0,71.8,70.0,91,82,67,29.93,29.83,13,2,14,0.25
2013-7-22,83.9,76.2,72.4,76.0,72.4,70.0,93,88,76,29.93,29.86,7,2,10,0.00
2013-7-23,85.9,79.9,74.5,75.0,72.9,71.0,91,80,65,29.67,29.57,8,2,12,0.92
2013-7-24,78.7,75.7,66.7,71.0,66.2,57.0,86,73,60,29.91,29.62,11,4,14,0.01
2013-7-25,68.6,65.4,61.5,61.0,57.3,54.0,89,75,68,30.02,29.91,12,6,15,0.00
2013-7-26,81.4,71.7,63.3,63.0,60.3,59.0,87,69,49,30.03,29.98,20,4,20,0.00
2013-7-27,83.7,74.5,65.4,70.0,65.1,62.0,94,74,53,30.04,29.92,9,3,18,0.00
2013-7-28,81.8,72.5,68.9,74.0,68.2,65.0,93,87,75,29.96,29.87,10,4,16,0.81
2013-7-29,82.0,73.4,67.4,68.0,62.9,53.0,95,73,38,30.11,29.93,11,3,13,0.04
2013-7-30,80.4,72.5,64.5,62.0,59.0,57.0,81,64,48,30.17,30.10,9,3,16,0.00
2013-7-31,80.4,72.5,61.6,67.0,62.3,59.0,91,72,51,30.15,30.02,8,2,13,0.00
2013-8-1,73.2,70.2,67.5,71.0,67.0,64.0,94,89,77,30.02,29.81,6,2,14,0.84
2013-8-2,83.5,76.0,67.6,69.0,66.1,63.0,95,74,50,29.92,29.80,10,3,15,0.01
2013-8-3,77.7,72.9,69.4,68.0,66.3,64.0,90,80,68,29.92,29.86,13,2,14,0.01
2013-8-4,78.4,71.5,64.4,65.0,60.3,55.0,93,70,45,29.98,29.84,11,4,21,0.00
2013-8-5,76.5,68.1,59.5,58.0,54.4,50.0,83,63,43,30.07,29.98,9,3,15,0.00
2013-8-6,77.9,68.7,58.7,66.0,60.3,56.0,91,76,53,30.10,30.01,12,2,21,0.00
2013-8-7,75.5,71.2,66.8,70.0,67.0,64.0,92,87,76,30.11,30.04,12,4,16,0.02
2013-8-8,86.0,77.1,70.3,75.0,71.6,68.0,95,84,66,30.04,29.97,13,5,20,0.51
2013-8-9,84.8,79.0,75.2,77.0,74.3,72.0,92,86,73,29.99,29.80,12,4,17,0.22
2013-8-10,82.9,77.2,72.3,74.0,67.0,63.0,92,72,54,30.03,29.86,9,2,13,0.00
2013-8-11,84.0,74.9,65.0,69.0,63.0,57.0,87,68,50,30.11,29.99,10,3,12,0.00
2013-8-12,82.2,75.5,69.8,71.0,69.1,66.0,93,81,60,30.02,29.91,8,2,13,0.00
2013-8-13,81.4,74.3,67.7,71.0,69.4,66.0,95,85,67,29.91,29.70,10,2,21,1.77
2013-8-14,74.6,67.6,61.4,69.0,55.3,50.0,84,65,50,30.05,29.75,15,6,22,0.00
2013-8-15,77.1,66.9,57.4,57.0,53.3,49.0,83,64,41,30.14,30.05,8,3,16,0.00
2013-8-16,78.4,68.4,56.4,59.0,55.9,53.0,93,67,42,30.19,30.11,8,2,12,0.00
2013-8-17,79.3,69.8,59.2,62.0,58.6,55.0,90,70,45,30.25,30.19,9,2,11,0.00
2013-8-18,74.2,68.8,63.8,64.0,61.6,57.0,90,78,56,30.24,30.12,9,2,11,0.05
2013-8-19,76.5,70.6,64.3,67.0,63.4,59.0,92,79,62,30.14,30.04,7,2,10,0.00
2013-8-20,86.9,76.0,64.9,70.0,66.4,63.0,94,74,49,30.13,30.05,6,1,9,0.00
2013-8-21,87.9,78.3,66.6,73.0,66.7,60.0,94,70,42,30.17,30.05,11,2,11,0.00
2013-8-22,82.5,76.1,72.2,74.0,71.2,70.0,94,85,72,30.06,29.88,9,3,14,0.27
2013-8-23,76.9,73.1,68.4,70.0,64.6,59.0,88,75,55,30.08,29.89,9,4,12,0.00
2013-8-24,78.0,69.8,61.0,62.0,56.5,47.0,86,64,33,30.34,30.08,10,4,16,0.00
2013-8-25,80.6,69.6,57.2,60.0,56.4,53.0,93,66,40,30.40,30.24,8,2,14,0.00
2013-8-26,84.6,75.1,66.0,69.0,63.8,58.0,84,69,53,30.24,29.92,12,4,16,0.00
2013-8-27,83.9,77.3,73.6,70.0,67.9,67.0,79,73,60,29.92,29.84,11,4,15,0.00
2013-9-1,88.8,80.4,75.3,76.0,72.6,70.0,90,78,59,29.84,29.75,11,3,16,0.00
2013-9-2,80.1,75.5,72.4,74.0,72.2,70.0,96,90,72,29.77,29.70,5,1,11,0.50
2013-9-3,81.2,74.4,68.7,71.0,64.8,58.0,96,75,50,29.89,29.70,11,4,18,0.00
2013-9-4,80.3,71.0,62.3,60.0,58.8,57.0,85,66,47,30.02,29.89,8,4,13,0.00
2013-9-5,77.3,69.5,60.2,64.0,57.1,48.0,82,66,40,30.12,29.95,11,3,18,0.00
2013-9-6,70.5,61.8,53.8,53.0,47.6,42.0,83,62,37,30.24,30.12,10,4,14,0.00
2013-9-7,78.4,65.1,50.9,61.0,52.6,49.0,93,68,36,30.13,29.91,10,2,13,0.00
2013-9-8,80.5,72.1,61.8,67.0,60.6,49.0,83,68,50,30.06,29.84,14,5,18,0.00
2013-9-9,74.7,65.7,55.6,63.0,55.3,47.0,83,69,57,30.21,30.07,10,4,14,0.00
2013-9-10,86.2,77.0,68.6,75.0,70.2,63.0,91,80,68,30.17,30.05,13,5,15,0.00
2013-9-11,91.7,82.9,73.9,78.0,74.0,71.0,92,76,57,30.11,29.97,13,4,19,0.00
2013-9-12,87.1,77.8,71.4,75.0,71.3,68.0,91,81,62,29.98,29.68,13,4,24,0.09
2013-9-13,74.4,68.5,60.3,68.0,60.9,53.0,95,78,56,29.87,29.64,15,5,20,0.33
2013-9-14,63.5,58.2,51.0,53.0,49.0,47.0,85,72,60,30.14,29.87,13,5,19,0.00
2013-9-15,72.6,60.5,47.9,57.0,50.3,45.0,89,71,48,30.22,30.08,10,3,14,0.00
2013-9-16,69.8,63.6,58.6,59.0,56.8,50.0,91,79,60,30.22,30.03,10,3,13,0.15
2013-9-17,64.1,55.9,48.7,50.0,43.8,40.0,89,66,42,30.41,30.23,13,5,17,0.00
2013-9-18,70.3,57.3,45.4,53.0,47.1,43.0,91,72,42,30.35,30.18,7,1,11,0.00
2013-9-19,74.8,61.4,48.0,57.0,52.4,46.0,95,75,48,30.19,30.06,8,1,11,0.01
2013-9-20,78.2,65.5,52.5,62.0,57.2,51.0,95,76,50,30.08,29.96,10,2,13,0.00
2013-9-21,79.3,66.6,53.6,67.0,59.6,52.0,96,80,46,30.00,29.66,21,4,22,0.66
2013-9-22,66.8,61.8,55.8,64.0,54.1,46.0,94,77,50,29.91,29.65,13,4,15,0.64
2013-9-23,65.7,57.1,49.0,48.0,45.3,43.0,79,65,51,30.04,29.92,15,5,16,0.00
2013-9-24,71.9,58.5,46.6,52.0,47.1,42.0,85,68,45,30.06,29.89,11,4,15,0.00
2013-9-25,71.9,60.1,50.5,55.0,49.0,45.0,89,68,43,29.95,29.86,6,2,12,0.01
2013-9-26,71.3,61.0,51.4,60.0,54.9,49.0,93,81,59,30.08,29.92,7,2,10,0.00
2013-9-27,68.7,62.0,56.9,57.0,54.8,52.0,93,79,56,30.25,30.08,9,3,10,0.00
2013-9-28,71.2,62.8,55.1,56.0,53.6,51.0,90,74,51,30.30,30.22,15,4,15,0.00
2013-9-29,70.8,61.1,53.0,60.0,53.8,50.0,91,78,56,30.21,30.06,10,2,14,0.00
2013-9-30,71.2,58.8,51.2,56.0,52.1,49.0,94,80,52,30.07,29.98,6,1,7,0.00
2013-10-4,85.1,79.3,71.5,68.0,66.8,66.0,83,67,54,30.06,29.96,8,2,13,0.00
2013-10-5,82.6,72.7,65.9,70.0,66.8,64.0,93,82,62,30.06,29.98,8,2,12,0.00
2013-10-6,79.6,69.6,65.2,71.0,66.7,64.0,96,91,76,30.05,29.95,10,4,14,0.29
2013-10-7,79.4,67.0,58.5,72.0,63.9,51.0,96,90,76,29.99,29.75,21,5,29,0.60
2013-10-8,65.8,58.0,50.9,51.0,49.0,47.0,93,73,53,30.29,30.00,12,3,17,0.00
2013-10-9,61.5,57.2,52.7,52.0,49.0,45.0,81,74,67,30.34,30.23,15,7,21,0.00
2013-10-10,62.0,57.3,52.9,57.0,53.3,50.0,92,87,73,30.23,30.00,15,9,19,0.23
2013-10-11,60.7,59.6,58.9,57.0,56.5,56.0,92,90,86,29.99,29.95,15,9,20,0.12
2013-10-12,70.2,66.3,62.6,60.0,56.8,54.0,81,72,62,30.21,30.11,18,11,25,0.00
2013-10-13,65.4,60.3,53.3,56.0,52.6,50.0,89,76,60,30.35,30.21,19,8,23,0.00
2013-10-14,67.7,57.5,50.3,55.0,51.3,48.0,92,81,59,30.34,30.22,7,2,11,0.00
2013-10-15,71.2,58.3,48.6,56.0,49.9,45.0,94,76,41,30.25,30.09,9,2,16,0.00
2013-10-16,67.9,61.0,53.7,60.0,56.8,50.0,93,86,76,30.09,29.91,5,2,7,0.00
2013-10-17,72.0,66.5,61.5,64.0,62.0,59.0,93,86,73,29.91,29.69,9,3,16,0.02
2013-10-18,67.7,59.6,49.2,64.0,48.0,44.0,88,66,51,29.99,29.69,15,5,24,0.01
2013-10-19,63.7,54.0,43.8,56.0,48.1,42.0,93,81,60,29.99,29.76,9,2,12,0.04
2013-10-20,61.9,53.6,45.3,53.0,42.5,38.0,92,68,42,30.07,29.78,14,4,19,0.00
2013-10-21,66.3,53.8,40.9,48.0,42.2,38.0,93,68,39,30.15,29.97,13,3,17,0.00
2013-10-22,66.2,54.7,46.0,53.0,46.4,35.0,95,75,52,29.97,29.77,9,2,17,0.00
2013-10-23,56.0,49.5,44.6,45.0,38.3,35.0,77,65,53,29.81,29.60,10,4,15,0.00
2013-10-24,44.3,42.6,40.7,38.0,36.5,35.0,81,79,73,29.95,29.79,7,4,12,0.00
2013-10-26,56.3,52.7,48.8,38.0,34.5,31.0,66,50,40,30.16,29.90,21,8,27,0.00
2013-10-27,57.2,50.8,43.1,38.0,35.3,33.0,70,56,44,30.13,29.88,13,4,25,0.00
2013-10-28,62.4,48.3,35.8,42.0,37.4,32.0,89,68,44,30.29,30.13,9,1,14,0.00
2013-10-29,59.4,49.7,43.4,44.0,39.6,34.0,88,69,49,30.38,30.29,10,2,12,0.00
2013-10-30,58.4,50.3,42.6,54.0,46.6,40.0,91,87,81,30.34,30.17,5,1,9,0.00
2013-10-31,69.6,60.9,51.1,62.0,56.3,49.0,95,86,71,30.21,29.79,11,4,18,0.03
2013-11-1,71.0,65.6,56.2,64.0,60.0,54.0,94,82,63,29.77,29.56,18,7,33,0.27
2013-11-2,67.5,58.9,51.2,56.0,48.5,41.0,95,71,48,29.79,29.62,12,2,14,0.01
2013-11-3,53.2,46.9,35.6,43.0,34.3,23.0,81,63,39,30.45,29.79,15,7,22,0.00
2013-11-4,46.1,38.9,31.7,29.0,24.0,21.0,70,56,37,30.64,30.45,14,4,18,0.00
2013-11-5,57.4,47.2,37.4,44.0,38.1,28.0,89,71,58,30.63,30.47,7,2,12,0.00
2013-11-6,66.8,53.9,41.9,55.0,47.4,40.0,94,80,58,30.48,30.05,11,3,15,0.00
2013-11-7,61.8,55.7,43.0,58.0,51.0,36.0,90,84,70,30.04,29.78,12,5,25,0.05
2013-11-8,49.6,44.2,38.1,39.0,31.4,28.0,80,61,47,30.25,29.97,21,6,23,0.00
2013-11-9,50.4,43.4,34.6,37.0,31.1,28.0,85,63,46,30.30,30.00,11,3,17,0.00
2013-11-10,60.1,48.9,36.8,40.0,34.2,30.0,90,60,41,30.10,29.86,20,5,26,0.00
2013-11-11,55.5,49.1,40.6,40.0,33.5,30.0,66,55,41,30.23,29.97,16,6,21,0.00
2013-11-12,51.1,39.3,31.0,40.0,27.1,19.0,88,62,50,30.32,29.94,16,7,25,0.02
2013-11-13,40.3,33.8,28.5,23.0,18.4,15.0,67,53,40,30.40,30.31,16,5,23,0.00
2013-11-14,55.8,42.9,32.7,28.0,21.3,16.0,66,45,21,30.31,30.18,12,4,18,0.00
2013-11-15,57.2,43.5,30.9,38.0,32.0,27.0,87,66,38,30.25,30.16,7,1,9,0.00
2013-11-16,57.4,49.5,41.5,49.0,44.6,35.0,91,83,69,30.32,30.24,10,2,11,0.03
2013-11-17,66.5,58.2,50.4,60.0,54.1,48.0,93,87,74,30.24,29.76,10,3,13,0.00
2013-11-18,65.6,61.0,50.7,62.0,42.7,28.0,93,55,30,29.82,29.62,17,6,22,0.23
2013-11-19,50.3,44.1,35.6,30.0,27.5,24.0,63,52,42,30.35,29.82,20,7,25,0.00
2013-11-20,45.1,36.8,30.8,24.0,19.9,11.0,73,53,27,30.58,30.35,13,3,14,0.00
2013-11-21,53.7,43.8,32.3,42.0,32.7,18.0,78,65,52,30.59,30.38,7,2,10,0.00
2013-11-22,58.5,52.4,47.2,51.0,47.8,42.0,90,84,75,30.37,29.93,12,3,14,0.01
2013-11-23,54.1,43.1,31.8,50.0,29.5,16.0,86,59,44,30.07,29.93,19,10,31,0.00
2013-11-24,31.3,27.2,24.2,14.0,6.0,4.0,49,40,33,30.44,30.07,26,10,30,0.00
2013-11-25,35.2,29.4,22.8,22.0,15.6,8.0,68,56,47,30.52,30.34,10,4,17,0.00
2013-11-26,53.7,37.8,33.7,53.0,30.0,21.0,96,75,54,30.34,29.65,11,4,15,0.65
2013-11-27,64.2,45.4,33.5,62.0,41.5,23.0,96,86,61,29.83,29.38,21,8,35,1.47
2013-11-28,36.8,32.8,29.9,23.0,19.5,17.0,65,58,46,30.48,29.85,17,6,27,0.00
2013-11-29,40.1,33.0,26.1,26.0,22.3,20.0,85,65,49,30.73,30.47,10,2,15,0.00
2013-11-30,39.8,32.9,24.7,30.0,23.5,15.0,77,68,64,30.73,30.37,10,3,13,0.00
2013-12-1,49.0,40.9,30.5,35.0,31.7,28.0,90,71,52,30.35,30.02,6,1,11,0.00
2013-12-2,51.4,42.5,36.6,35.0,33.0,31.0,84,70,52,30.02,29.87,4,0,8,0.00
2013-12-3,53.8,44.4,37.2,42.0,37.1,33.0,87,76,53,30.00,29.87,5,1,8,0.00
2013-12-4,52.0,45.1,36.2,45.0,39.4,33.0,90,81,70,30.10,30.00,5,1,7,0.00
2013-12-5,59.9,54.1,48.2,59.0,52.2,45.0,96,93,87,30.09,29.92,8,2,12,0.02
2013-12-6,62.3,49.5,37.9,61.0,47.6,36.0,96,93,88,30.14,29.86,13,6,19,0.78
2013-12-7,39.8,36.4,31.8,36.0,31.1,26.0,93,81,69,30.51,30.07,15,4,17,0.14
2013-12-8,31.5,29.1,27.4,30.0,24.3,20.0,94,83,66,30.58,30.33,10,4,12,0.00
2013-12-9,37.2,35.1,31.5,36.0,33.8,30.0,95,95,93,30.32,29.98,10,4,12,0.86
2013-12-10,35.8,34.0,33.3,33.0,32.4,32.0,94,94,88,30.04,29.90,6,1,11,0.01
2013-12-14,33.2,30.1,28.2,32.0,27.6,26.0,95,90,80,30.43,29.68,15,10,21,0.00
2013-12-15,40.1,35.2,30.3,35.0,30.2,24.0,95,83,64,29.87,29.53,14,4,22,0.41
2013-12-16,33.2,28.0,22.5,25.0,15.7,12.0,76,60,47,30.23,29.87,13,5,24,0.00
2013-12-17,32.4,27.2,23.5,30.0,23.1,17.0,91,85,65,30.21,29.93,8,3,10,0.02
2013-12-18,37.7,30.3,21.8,26.0,22.5,19.0,90,73,57,30.20,29.95,16,3,22,0.04
2013-12-19,40.5,28.6,24.2,30.0,24.2,21.0,90,84,65,30.20,30.10,8,1,16,0.00
2013-12-20,53.3,50.0,47.0,46.0,40.6,37.0,90,71,54,30.01,29.97,8,2,12,0.00
2013-12-21,66.6,55.2,41.3,58.0,49.9,40.0,96,83,67,30.00,29.88,15,4,18,0.00
2013-12-22,68.4,64.9,61.1,63.0,60.4,57.0,92,86,80,29.95,29.80,20,8,28,0.18
2013-12-23,62.3,56.1,43.2,60.0,53.0,35.0,96,90,72,30.16,29.89,11,4,26,0.58
2013-12-24,42.9,35.9,28.4,34.0,24.9,16.0,73,64,55,30.38,30.11,17,7,22,0.00
2013-12-25,29.8,26.3,21.0,20.0,14.0,10.0,71,59,49,30.54,30.38,13,4,17,0.00
2013-12-26,40.9,30.8,22.5,31.0,24.4,19.0,88,77,63,30.40,30.18,15,2,18,0.00
2013-12-27,46.0,34.4,26.7,26.0,23.7,21.0,86,67,40,30.38,30.27,15,2,18,0.00
2013-12-28,56.2,41.5,26.9,34.0,29.6,24.0,91,65,41,30.30,30.09,12,4,18,0.00
2013-12-29,46.8,43.2,41.0,45.0,38.2,32.0,95,83,66,30.08,29.42,12,4,17,1.09
2013-12-30,45.4,38.3,27.2,40.0,31.1,16.0,94,76,60,30.17,29.74,13,5,21,0.01
2013-12-31,36.6,29.3,23.4,29.0,18.5,14.0,76,64,52,30.32,30.06,12,4,20,0.00
2014-1-1,38.9,31.4,24.5,25.0,20.9,14.0,75,65,55,30.41,30.19,8,3,11,0.00
2014-1-2,34.2,29.4,20.9,28.0,25.1,19.0,92,84,72,30.18,29.64,16,9,18,0.00